MZT8085 ZJHK-ZSSS
Flight info
| Callsign | MZT8085 |
|---|---|
| Flight time | 2h 20m |
| Altitude | 31100 |
| Route | SAMAS9ZD SAMAS G221 BIGRO R200 BEBEM A470 LJG B221 SHZ G204 JTN |
| Aircraft | B737/M-SDFGHIM1RWXYZ/LB1 |
Departure
| Time | 2026-04-28 11:19 |
|---|---|
| Airport | Haikou Meilan International Airport (ZJHK) |
Arrival
| Time | 2026-04-28 13:39 |
|---|---|
| Airport | Shanghai Hongqiao International Airport (ZSSS) |
| Time | Latitude | Longitude | Altitude | Speed | Heading |
|---|---|---|---|---|---|
| 2026-04-28 11:12 | 19.94253 | 110.46869 | 68 ft | 22 kts | 360° |
| 2026-04-28 11:12 | 19.94415 | 110.46868 | 64 ft | 23 kts | 0° |
| 2026-04-28 11:12 | 19.94574 | 110.46868 | 59 ft | 23 kts | 360° |
| 2026-04-28 11:13 | 19.94729 | 110.46867 | 61 ft | 22 kts | 360° |
| 2026-04-28 11:13 | 19.94879 | 110.46867 | 56 ft | 21 kts | 360° |
| 2026-04-28 11:13 | 19.95022 | 110.46866 | 58 ft | 17 kts | 0° |
| 2026-04-28 11:13 | 19.95099 | 110.46869 | 59 ft | 10 kts | 15° |
| 2026-04-28 11:14 | 19.95125 | 110.46930 | 59 ft | 10 kts | 89° |
| 2026-04-28 11:14 | 19.95125 | 110.47002 | 59 ft | 10 kts | 90° |
| 2026-04-28 11:14 | 19.95125 | 110.47086 | 60 ft | 13 kts | 90° |
| 2026-04-28 11:14 | 19.95125 | 110.47187 | 60 ft | 15 kts | 90° |
| 2026-04-28 11:15 | 19.95126 | 110.47303 | 61 ft | 17 kts | 90° |
| 2026-04-28 11:15 | 19.95126 | 110.47433 | 61 ft | 18 kts | 90° |
| 2026-04-28 11:15 | 19.95126 | 110.47572 | 62 ft | 19 kts | 90° |
| 2026-04-28 11:15 | 19.95127 | 110.47709 | 62 ft | 18 kts | 90° |
| 2026-04-28 11:16 | 19.95127 | 110.47841 | 63 ft | 18 kts | 90° |
| 2026-04-28 11:16 | 19.95128 | 110.47968 | 63 ft | 17 kts | 90° |
| 2026-04-28 11:16 | 19.95128 | 110.48088 | 63 ft | 16 kts | 90° |
| 2026-04-28 11:16 | 19.95129 | 110.48197 | 63 ft | 10 kts | 90° |
| 2026-04-28 11:17 | 19.95158 | 110.48257 | 64 ft | 10 kts | 16° |
| 2026-04-28 11:17 | 19.95226 | 110.48259 | 61 ft | 10 kts | 360° |
| 2026-04-28 11:17 | 19.95293 | 110.48259 | 59 ft | 9 kts | 360° |
| 2026-04-28 11:17 | 19.95356 | 110.48258 | 60 ft | 7 kts | 358° |
| 2026-04-28 11:18 | 19.95381 | 110.48226 | 62 ft | 7 kts | 271° |
| 2026-04-28 11:18 | 19.95381 | 110.48207 | 62 ft | 0 kts | 269° |
| 2026-04-28 11:18 | 19.95381 | 110.48205 | 62 ft | 1 kts | 269° |
| 2026-04-28 11:18 | 19.95381 | 110.48027 | 63 ft | 65 kts | 270° |
| 2026-04-28 11:19 | 19.95377 | 110.47232 | 68 ft | 146 kts | 269° |
| 2026-04-28 11:19 | 19.95374 | 110.46066 | 760 ft | 159 kts | 268° |
| 2026-04-28 11:19 | 19.95371 | 110.44865 | 1713 ft | 162 kts | 265° |
| 2026-04-28 11:19 | 19.95363 | 110.43671 | 2595 ft | 160 kts | 264° |
| 2026-04-28 11:20 | 19.95362 | 110.42492 | 3349 ft | 160 kts | 265° |
| 2026-04-28 11:20 | 19.95356 | 110.41245 | 3798 ft | 184 kts | 266° |
| 2026-04-28 11:20 | 19.95347 | 110.39773 | 4077 ft | 213 kts | 266° |
| 2026-04-28 11:20 | 19.95340 | 110.38106 | 4299 ft | 237 kts | 267° |
| 2026-04-28 11:21 | 19.95336 | 110.36337 | 4784 ft | 245 kts | 267° |
| 2026-04-28 11:21 | 19.95331 | 110.34505 | 5395 ft | 248 kts | 268° |
| 2026-04-28 11:21 | 19.95325 | 110.32665 | 6061 ft | 250 kts | 268° |
| 2026-04-28 11:21 | 19.95318 | 110.30813 | 6689 ft | 252 kts | 268° |
| 2026-04-28 11:22 | 19.95545 | 110.28956 | 7343 ft | 258 kts | 289° |
| 2026-04-28 11:22 | 19.96515 | 110.27350 | 8161 ft | 263 kts | 313° |
| 2026-04-28 11:22 | 19.98062 | 110.26292 | 9125 ft | 270 kts | 338° |
| 2026-04-28 11:22 | 19.99936 | 110.26007 | 9623 ft | 276 kts | 360° |
| 2026-04-28 11:23 | 20.01859 | 110.26140 | 9791 ft | 277 kts | 2° |
| 2026-04-28 11:23 | 20.03777 | 110.26294 | 9799 ft | 276 kts | 1° |
| 2026-04-28 11:23 | 20.05698 | 110.26437 | 9812 ft | 277 kts | 1° |
| 2026-04-28 11:23 | 20.07592 | 110.26693 | 9799 ft | 282 kts | 16° |
| 2026-04-28 11:24 | 20.09274 | 110.27755 | 9808 ft | 286 kts | 44° |
| 2026-04-28 11:24 | 20.10312 | 110.29582 | 9830 ft | 296 kts | 75° |
| 2026-04-28 11:24 | 20.10526 | 110.31772 | 10407 ft | 301 kts | 90° |
| 2026-04-28 11:24 | 20.10517 | 110.34019 | 11308 ft | 305 kts | 91° |
| 2026-04-28 11:25 | 20.10493 | 110.36310 | 12026 ft | 319 kts | 91° |
| 2026-04-28 11:25 | 20.10481 | 110.38774 | 12240 ft | 348 kts | 90° |
| 2026-04-28 11:25 | 20.10482 | 110.41426 | 12753 ft | 364 kts | 90° |
| 2026-04-28 11:25 | 20.10849 | 110.44110 | 13512 ft | 371 kts | 70° |
| 2026-04-28 11:26 | 20.12118 | 110.46488 | 14314 ft | 371 kts | 47° |
| 2026-04-28 11:26 | 20.14083 | 110.48186 | 15116 ft | 369 kts | 25° |
| 2026-04-28 11:26 | 20.16495 | 110.49052 | 15921 ft | 366 kts | 4° |
| 2026-04-28 11:26 | 20.19033 | 110.49187 | 16743 ft | 367 kts | 356° |
| 2026-04-28 11:27 | 20.21598 | 110.49185 | 17520 ft | 371 kts | 355° |
| 2026-04-28 11:27 | 20.24204 | 110.49168 | 18276 ft | 376 kts | 355° |
| 2026-04-28 11:27 | 20.26843 | 110.49173 | 18944 ft | 381 kts | 356° |
| 2026-04-28 11:27 | 20.29506 | 110.49200 | 19337 ft | 382 kts | 356° |
| 2026-04-28 11:28 | 20.32183 | 110.49238 | 19520 ft | 387 kts | 356° |
| 2026-04-28 11:28 | 20.34877 | 110.49279 | 19508 ft | 386 kts | 356° |
| 2026-04-28 11:28 | 20.37560 | 110.49319 | 19521 ft | 385 kts | 356° |
| 2026-04-28 11:28 | 20.40244 | 110.49357 | 19529 ft | 385 kts | 356° |
| 2026-04-28 11:29 | 20.42927 | 110.49394 | 19527 ft | 385 kts | 356° |
| 2026-04-28 11:29 | 20.45604 | 110.49432 | 19528 ft | 385 kts | 356° |
| 2026-04-28 11:29 | 20.48289 | 110.49568 | 19510 ft | 390 kts | 6° |
| 2026-04-28 11:29 | 20.50862 | 110.50561 | 19541 ft | 399 kts | 26° |
| 2026-04-28 11:30 | 20.53032 | 110.52477 | 19908 ft | 412 kts | 45° |
| 2026-04-28 11:30 | 20.56808 | 110.57130 | 21370 ft | 417 kts | 47° |
| 2026-04-28 11:30 | 20.58676 | 110.59518 | 22008 ft | 422 kts | 47° |
| 2026-04-28 11:31 | 20.60549 | 110.61904 | 22606 ft | 426 kts | 47° |
| 2026-04-28 11:31 | 20.62472 | 110.64337 | 23219 ft | 431 kts | 47° |
| 2026-04-28 11:31 | 20.64422 | 110.66786 | 23746 ft | 435 kts | 47° |
| 2026-04-28 11:31 | 20.66396 | 110.69253 | 24258 ft | 438 kts | 46° |
| 2026-04-28 11:32 | 20.68389 | 110.71738 | 24782 ft | 442 kts | 46° |
| 2026-04-28 11:32 | 20.70398 | 110.74242 | 25286 ft | 445 kts | 46° |
| 2026-04-28 11:32 | 20.72420 | 110.76762 | 25804 ft | 449 kts | 46° |
| 2026-04-28 11:32 | 20.74465 | 110.79311 | 26281 ft | 452 kts | 46° |
| 2026-04-28 11:33 | 20.76518 | 110.81872 | 26772 ft | 456 kts | 46° |
| 2026-04-28 11:33 | 20.78588 | 110.84455 | 27254 ft | 459 kts | 46° |
| 2026-04-28 11:33 | 20.80678 | 110.87066 | 27715 ft | 463 kts | 46° |
| 2026-04-28 11:33 | 20.82781 | 110.89694 | 28163 ft | 467 kts | 46° |
| 2026-04-28 11:34 | 20.84902 | 110.92347 | 28612 ft | 470 kts | 46° |
| 2026-04-28 11:34 | 20.87006 | 110.94979 | 29046 ft | 474 kts | 46° |
| 2026-04-28 11:34 | 20.89158 | 110.97674 | 29478 ft | 477 kts | 46° |
| 2026-04-28 11:34 | 20.91322 | 111.00384 | 29883 ft | 481 kts | 46° |
| 2026-04-28 11:35 | 20.93499 | 111.03112 | 30246 ft | 483 kts | 46° |
| 2026-04-28 11:35 | 20.95688 | 111.05856 | 30673 ft | 484 kts | 46° |
| 2026-04-28 11:35 | 20.97875 | 111.08589 | 30932 ft | 483 kts | 46° |
| 2026-04-28 11:35 | 21.00053 | 111.11303 | 30925 ft | 480 kts | 46° |
| 2026-04-28 11:36 | 21.04404 | 111.16717 | 30942 ft | 480 kts | 46° |
| 2026-04-28 11:36 | 21.08763 | 111.22148 | 30947 ft | 481 kts | 46° |
| 2026-04-28 11:37 | 21.13105 | 111.27569 | 30950 ft | 482 kts | 46° |
| 2026-04-28 11:37 | 21.17479 | 111.33038 | 30942 ft | 482 kts | 46° |
| 2026-04-28 11:38 | 21.21843 | 111.38499 | 30945 ft | 482 kts | 46° |
| 2026-04-28 11:38 | 21.26196 | 111.43952 | 30950 ft | 482 kts | 46° |
| 2026-04-28 11:39 | 21.30552 | 111.49415 | 30952 ft | 481 kts | 47° |
| 2026-04-28 11:39 | 21.34875 | 111.54840 | 30954 ft | 481 kts | 47° |
| 2026-04-28 11:40 | 21.39231 | 111.60313 | 30955 ft | 481 kts | 47° |
| 2026-04-28 11:40 | 21.43576 | 111.65778 | 30957 ft | 481 kts | 47° |
| 2026-04-28 11:41 | 21.47921 | 111.71249 | 30959 ft | 482 kts | 47° |
| 2026-04-28 11:41 | 21.52270 | 111.76730 | 30957 ft | 482 kts | 47° |
| 2026-04-28 11:42 | 21.56525 | 111.82298 | 30950 ft | 484 kts | 53° |
| 2026-04-28 11:42 | 21.59609 | 111.88742 | 30956 ft | 486 kts | 65° |
| 2026-04-28 11:43 | 21.62201 | 111.95417 | 30959 ft | 486 kts | 66° |
| 2026-04-28 11:43 | 21.64818 | 112.02114 | 30957 ft | 485 kts | 65° |
| 2026-04-28 11:44 | 21.67473 | 112.08775 | 30954 ft | 485 kts | 65° |
| 2026-04-28 11:44 | 21.70143 | 112.15430 | 30953 ft | 484 kts | 65° |
| 2026-04-28 11:45 | 21.72803 | 112.22071 | 30958 ft | 484 kts | 65° |
| 2026-04-28 11:45 | 21.75461 | 112.28722 | 30956 ft | 483 kts | 65° |
| 2026-04-28 11:46 | 21.77665 | 112.34248 | 30957 ft | 483 kts | 65° |
| 2026-04-28 11:46 | 21.80307 | 112.40880 | 30958 ft | 482 kts | 65° |
| 2026-04-28 11:47 | 21.82945 | 112.47511 | 30953 ft | 481 kts | 65° |
| 2026-04-28 11:47 | 21.85575 | 112.54128 | 30958 ft | 480 kts | 66° |
| 2026-04-28 11:48 | 21.88215 | 112.60722 | 30958 ft | 479 kts | 65° |
| 2026-04-28 11:48 | 21.90852 | 112.67264 | 30958 ft | 478 kts | 65° |
| 2026-04-28 11:49 | 21.93493 | 112.73841 | 30958 ft | 478 kts | 65° |
| 2026-04-28 11:49 | 21.96126 | 112.80412 | 30959 ft | 477 kts | 65° |
| 2026-04-28 11:50 | 21.98733 | 112.86998 | 30957 ft | 477 kts | 66° |
| 2026-04-28 11:50 | 22.01264 | 112.93498 | 30964 ft | 477 kts | 66° |
| 2026-04-28 11:51 | 22.03836 | 113.00089 | 30955 ft | 477 kts | 66° |
| 2026-04-28 11:51 | 22.06489 | 113.06582 | 30959 ft | 476 kts | 64° |
| 2026-04-28 11:52 | 22.09214 | 113.13097 | 30958 ft | 476 kts | 65° |
| 2026-04-28 11:52 | 22.11917 | 113.19624 | 30955 ft | 477 kts | 65° |
| 2026-04-28 11:53 | 22.14590 | 113.26171 | 30959 ft | 477 kts | 66° |
| 2026-04-28 11:53 | 22.17062 | 113.32828 | 30957 ft | 477 kts | 68° |
| 2026-04-28 11:54 | 22.19506 | 113.39478 | 30958 ft | 477 kts | 67° |
| 2026-04-28 11:54 | 22.22180 | 113.45981 | 30951 ft | 476 kts | 58° |
| 2026-04-28 11:55 | 22.26218 | 113.51587 | 30967 ft | 472 kts | 44° |
| 2026-04-28 11:55 | 22.30757 | 113.56730 | 30955 ft | 473 kts | 44° |
| 2026-04-28 11:56 | 22.35301 | 113.61898 | 30959 ft | 474 kts | 44° |
| 2026-04-28 11:56 | 22.39783 | 113.67077 | 30968 ft | 475 kts | 44° |
| 2026-04-28 11:57 | 22.44281 | 113.72312 | 30958 ft | 475 kts | 45° |
| 2026-04-28 11:57 | 22.48784 | 113.77558 | 30960 ft | 475 kts | 44° |
| 2026-04-28 11:58 | 22.53279 | 113.82796 | 30961 ft | 475 kts | 44° |
| 2026-04-28 11:58 | 22.57775 | 113.88041 | 30956 ft | 475 kts | 44° |
| 2026-04-28 11:59 | 22.62268 | 113.93287 | 30960 ft | 475 kts | 45° |
| 2026-04-28 11:59 | 22.66727 | 113.98498 | 30959 ft | 474 kts | 44° |
| 2026-04-28 12:00 | 22.70440 | 114.04403 | 30968 ft | 479 kts | 65° |
| 2026-04-28 12:00 | 22.71506 | 114.07820 | 30961 ft | 481 kts | 76° |
| 2026-04-28 12:00 | 22.72004 | 114.11405 | 30982 ft | 481 kts | 83° |
| 2026-04-28 12:01 | 22.72655 | 114.18621 | 30976 ft | 481 kts | 84° |
| 2026-04-28 12:01 | 22.73317 | 114.25849 | 30976 ft | 482 kts | 84° |
| 2026-04-28 12:02 | 22.74043 | 114.33058 | 30978 ft | 481 kts | 83° |
| 2026-04-28 12:02 | 22.74784 | 114.40253 | 30975 ft | 480 kts | 83° |
| 2026-04-28 12:03 | 22.75514 | 114.47406 | 30980 ft | 480 kts | 83° |
| 2026-04-28 12:03 | 22.76243 | 114.54593 | 30980 ft | 479 kts | 83° |
| 2026-04-28 12:04 | 22.77003 | 114.61779 | 30982 ft | 479 kts | 83° |
| 2026-04-28 12:04 | 22.77762 | 114.68913 | 30986 ft | 479 kts | 83° |
| 2026-04-28 12:05 | 22.78517 | 114.76097 | 30990 ft | 479 kts | 83° |
| 2026-04-28 12:05 | 22.79279 | 114.83269 | 30989 ft | 479 kts | 83° |
| 2026-04-28 12:06 | 22.80043 | 114.90440 | 30994 ft | 479 kts | 83° |
| 2026-04-28 12:06 | 22.80803 | 114.97609 | 30987 ft | 478 kts | 83° |
| 2026-04-28 12:07 | 22.81553 | 115.04724 | 30995 ft | 477 kts | 84° |
| 2026-04-28 12:07 | 22.82302 | 115.11874 | 30999 ft | 477 kts | 84° |
| 2026-04-28 12:08 | 22.83048 | 115.19018 | 31001 ft | 476 kts | 84° |
| 2026-04-28 12:08 | 22.83790 | 115.26153 | 30997 ft | 476 kts | 84° |
| 2026-04-28 12:09 | 22.84528 | 115.33290 | 31002 ft | 476 kts | 84° |
| 2026-04-28 12:09 | 22.85264 | 115.40433 | 31008 ft | 477 kts | 84° |
| 2026-04-28 12:10 | 22.85997 | 115.47582 | 31005 ft | 477 kts | 84° |
| 2026-04-28 12:10 | 22.86722 | 115.54686 | 31005 ft | 477 kts | 84° |
| 2026-04-28 12:11 | 22.87448 | 115.61830 | 31001 ft | 477 kts | 84° |
| 2026-04-28 12:11 | 22.88171 | 115.68975 | 31009 ft | 476 kts | 84° |
| 2026-04-28 12:12 | 22.88891 | 115.76118 | 31012 ft | 476 kts | 84° |
| 2026-04-28 12:12 | 22.89607 | 115.83260 | 31005 ft | 476 kts | 84° |
| 2026-04-28 12:13 | 22.90321 | 115.90406 | 31006 ft | 476 kts | 84° |
| 2026-04-28 12:13 | 22.91036 | 115.97539 | 31008 ft | 476 kts | 84° |
| 2026-04-28 12:14 | 22.91752 | 116.04684 | 31005 ft | 476 kts | 84° |
| 2026-04-28 12:14 | 22.92491 | 116.11777 | 31012 ft | 476 kts | 84° |
| 2026-04-28 12:15 | 22.93236 | 116.18927 | 31008 ft | 477 kts | 84° |
| 2026-04-28 12:15 | 22.93975 | 116.26083 | 31013 ft | 477 kts | 84° |
| 2026-04-28 12:16 | 22.94990 | 116.33180 | 30998 ft | 478 kts | 70° |
| 2026-04-28 12:16 | 22.96433 | 116.36404 | 31017 ft | 476 kts | 56° |
| 2026-04-28 12:16 | 22.98528 | 116.39174 | 31007 ft | 473 kts | 40° |
| 2026-04-28 12:17 | 23.03745 | 116.43497 | 31014 ft | 472 kts | 34° |
| 2026-04-28 12:17 | 23.09008 | 116.47706 | 31014 ft | 473 kts | 34° |
| 2026-04-28 12:18 | 23.14270 | 116.52012 | 31009 ft | 473 kts | 35° |
| 2026-04-28 12:18 | 23.19502 | 116.56344 | 31015 ft | 473 kts | 35° |
| 2026-04-28 12:19 | 23.24746 | 116.60697 | 31012 ft | 473 kts | 35° |
| 2026-04-28 12:19 | 23.29985 | 116.65045 | 31018 ft | 473 kts | 35° |
| 2026-04-28 12:20 | 23.35186 | 116.69366 | 31017 ft | 473 kts | 35° |
| 2026-04-28 12:20 | 23.40417 | 116.73716 | 31017 ft | 473 kts | 35° |
| 2026-04-28 12:21 | 23.45522 | 116.78246 | 31013 ft | 475 kts | 43° |
| 2026-04-28 12:21 | 23.50103 | 116.83431 | 31014 ft | 475 kts | 45° |
| 2026-04-28 12:22 | 23.54622 | 116.88685 | 31025 ft | 475 kts | 45° |
| 2026-04-28 12:22 | 23.59186 | 116.93909 | 31027 ft | 475 kts | 44° |
| 2026-04-28 12:23 | 23.63761 | 116.99103 | 31025 ft | 475 kts | 44° |
| 2026-04-28 12:23 | 23.68309 | 117.04269 | 31033 ft | 475 kts | 44° |
| 2026-04-28 12:24 | 23.72882 | 117.09475 | 31023 ft | 475 kts | 44° |
| 2026-04-28 12:24 | 23.77489 | 117.14647 | 31024 ft | 474 kts | 41° |
| 2026-04-28 12:25 | 23.82378 | 117.19477 | 31032 ft | 473 kts | 39° |
| 2026-04-28 12:25 | 23.87342 | 117.24216 | 31024 ft | 473 kts | 39° |
| 2026-04-28 12:26 | 23.92272 | 117.28988 | 31035 ft | 473 kts | 39° |
| 2026-04-28 12:26 | 23.97147 | 117.33752 | 31030 ft | 474 kts | 40° |
| 2026-04-28 12:27 | 24.02057 | 117.38570 | 31025 ft | 474 kts | 40° |
| 2026-04-28 12:27 | 24.06971 | 117.43392 | 31021 ft | 473 kts | 40° |
| 2026-04-28 12:28 | 24.11878 | 117.48207 | 31024 ft | 473 kts | 40° |
| 2026-04-28 12:28 | 24.16591 | 117.53243 | 31025 ft | 474 kts | 45° |
| 2026-04-28 12:29 | 24.23184 | 117.61272 | 31021 ft | 474 kts | 46° |
| 2026-04-28 12:30 | 24.27598 | 117.66640 | 31018 ft | 474 kts | 46° |
| 2026-04-28 12:30 | 24.32041 | 117.71990 | 31011 ft | 474 kts | 46° |
| 2026-04-28 12:31 | 24.36491 | 117.77341 | 31015 ft | 475 kts | 46° |
| 2026-04-28 12:31 | 24.40939 | 117.82698 | 31011 ft | 475 kts | 46° |
| 2026-04-28 12:32 | 24.45388 | 117.88065 | 31034 ft | 475 kts | 46° |
| 2026-04-28 12:32 | 24.49835 | 117.93435 | 31031 ft | 475 kts | 46° |
| 2026-04-28 12:33 | 24.54286 | 117.98818 | 31035 ft | 475 kts | 46° |
| 2026-04-28 12:33 | 24.58766 | 118.04165 | 31050 ft | 475 kts | 45° |
| 2026-04-28 12:34 | 24.63356 | 118.09345 | 31040 ft | 476 kts | 44° |
| 2026-04-28 12:34 | 24.67225 | 118.13722 | 31035 ft | 476 kts | 45° |
| 2026-04-28 12:35 | 24.72563 | 118.19818 | 31040 ft | 475 kts | 45° |
| 2026-04-28 12:35 | 24.76392 | 118.24174 | 31028 ft | 475 kts | 45° |
| 2026-04-28 12:36 | 24.80987 | 118.29403 | 31041 ft | 475 kts | 45° |
| 2026-04-28 12:36 | 24.86321 | 118.35485 | 31030 ft | 474 kts | 45° |
| 2026-04-28 12:37 | 24.90156 | 118.39866 | 31026 ft | 475 kts | 45° |
| 2026-04-28 12:37 | 24.94707 | 118.45070 | 31048 ft | 474 kts | 45° |
| 2026-04-28 12:38 | 24.99281 | 118.50306 | 31043 ft | 474 kts | 45° |
| 2026-04-28 12:38 | 25.03858 | 118.55553 | 31050 ft | 474 kts | 45° |
| 2026-04-28 12:39 | 25.08436 | 118.60805 | 31053 ft | 475 kts | 45° |
| 2026-04-28 12:39 | 25.12951 | 118.66111 | 31063 ft | 475 kts | 46° |
| 2026-04-28 12:40 | 25.17410 | 118.71515 | 31058 ft | 475 kts | 47° |
| 2026-04-28 12:40 | 25.21865 | 118.76908 | 31083 ft | 475 kts | 46° |
| 2026-04-28 12:41 | 25.26323 | 118.82285 | 31075 ft | 475 kts | 46° |
| 2026-04-28 12:41 | 25.30783 | 118.87668 | 31079 ft | 475 kts | 46° |
| 2026-04-28 12:42 | 25.35219 | 118.93018 | 31071 ft | 475 kts | 46° |
| 2026-04-28 12:42 | 25.39749 | 118.98324 | 31075 ft | 474 kts | 45° |
| 2026-04-28 12:43 | 25.44295 | 119.03607 | 31072 ft | 474 kts | 45° |
| 2026-04-28 12:43 | 25.48833 | 119.08906 | 31072 ft | 474 kts | 45° |
| 2026-04-28 12:44 | 25.53367 | 119.14221 | 31066 ft | 474 kts | 45° |
| 2026-04-28 12:44 | 25.57891 | 119.19533 | 31067 ft | 474 kts | 45° |
| 2026-04-28 12:45 | 25.62393 | 119.24826 | 31068 ft | 475 kts | 45° |
| 2026-04-28 12:45 | 25.66917 | 119.30150 | 31068 ft | 474 kts | 45° |
| 2026-04-28 12:46 | 25.71494 | 119.35429 | 31058 ft | 474 kts | 40° |
| 2026-04-28 12:46 | 25.76970 | 119.39420 | 31071 ft | 469 kts | 22° |
| 2026-04-28 12:47 | 25.83116 | 119.41736 | 31069 ft | 466 kts | 13° |
| 2026-04-28 12:47 | 25.89358 | 119.43748 | 31064 ft | 467 kts | 13° |
| 2026-04-28 12:48 | 25.95581 | 119.45809 | 31059 ft | 467 kts | 14° |
| 2026-04-28 12:48 | 26.01761 | 119.47904 | 31065 ft | 467 kts | 14° |
| 2026-04-28 12:49 | 26.07981 | 119.50023 | 31067 ft | 466 kts | 14° |
| 2026-04-28 12:49 | 26.14147 | 119.52123 | 31072 ft | 465 kts | 14° |
| 2026-04-28 12:50 | 26.20329 | 119.54244 | 31065 ft | 466 kts | 16° |
| 2026-04-28 12:50 | 26.26135 | 119.57503 | 31081 ft | 469 kts | 30° |
| 2026-04-28 12:51 | 26.31617 | 119.61468 | 31077 ft | 470 kts | 31° |
| 2026-04-28 12:51 | 26.37107 | 119.65406 | 31083 ft | 469 kts | 30° |
| 2026-04-28 12:52 | 26.42624 | 119.69290 | 31087 ft | 469 kts | 29° |
| 2026-04-28 12:52 | 26.48147 | 119.73174 | 31095 ft | 469 kts | 29° |
| 2026-04-28 12:53 | 26.53683 | 119.77054 | 31080 ft | 470 kts | 29° |
| 2026-04-28 12:53 | 26.59182 | 119.80907 | 31093 ft | 469 kts | 29° |
| 2026-04-28 12:54 | 26.64722 | 119.84796 | 31095 ft | 470 kts | 29° |
| 2026-04-28 12:54 | 26.70253 | 119.88686 | 31096 ft | 470 kts | 29° |
| 2026-04-28 12:55 | 26.75788 | 119.92583 | 31105 ft | 469 kts | 29° |
| 2026-04-28 12:55 | 26.81324 | 119.96486 | 31119 ft | 470 kts | 29° |
| 2026-04-28 12:56 | 26.86854 | 120.00389 | 31108 ft | 470 kts | 29° |
| 2026-04-28 12:56 | 26.92340 | 120.04283 | 31119 ft | 470 kts | 29° |
| 2026-04-28 12:57 | 26.97871 | 120.08222 | 31120 ft | 470 kts | 29° |
| 2026-04-28 12:57 | 27.03393 | 120.12157 | 31130 ft | 470 kts | 29° |
| 2026-04-28 12:58 | 27.08901 | 120.16086 | 31130 ft | 470 kts | 29° |
| 2026-04-28 12:58 | 27.14440 | 120.20033 | 31140 ft | 469 kts | 29° |
| 2026-04-28 12:59 | 27.19968 | 120.23907 | 31157 ft | 469 kts | 28° |
| 2026-04-28 12:59 | 27.25516 | 120.27789 | 31142 ft | 470 kts | 28° |
| 2026-04-28 13:00 | 27.31069 | 120.31692 | 31151 ft | 471 kts | 29° |
| 2026-04-28 13:00 | 27.36629 | 120.35606 | 31149 ft | 471 kts | 28° |
| 2026-04-28 13:01 | 27.42146 | 120.39518 | 31158 ft | 471 kts | 29° |
| 2026-04-28 13:01 | 27.47692 | 120.43473 | 31159 ft | 471 kts | 29° |
| 2026-04-28 13:02 | 27.53245 | 120.47437 | 31151 ft | 472 kts | 29° |
| 2026-04-28 13:02 | 27.58787 | 120.51394 | 31150 ft | 471 kts | 29° |
| 2026-04-28 13:03 | 27.64296 | 120.55333 | 31153 ft | 471 kts | 29° |
| 2026-04-28 13:03 | 27.69841 | 120.59301 | 31144 ft | 472 kts | 29° |
| 2026-04-28 13:04 | 27.75662 | 120.62537 | 31152 ft | 463 kts | 13° |
| 2026-04-28 13:04 | 27.81924 | 120.63793 | 31160 ft | 454 kts | 359° |
| 2026-04-28 13:05 | 27.88240 | 120.64285 | 31150 ft | 455 kts | 359° |
| 2026-04-28 13:05 | 27.94521 | 120.64821 | 31148 ft | 456 kts | 360° |
| 2026-04-28 13:06 | 28.00854 | 120.65415 | 31153 ft | 456 kts | 360° |
| 2026-04-28 13:06 | 28.07188 | 120.66024 | 31150 ft | 457 kts | 0° |
| 2026-04-28 13:07 | 28.13512 | 120.66651 | 31160 ft | 456 kts | 360° |
| 2026-04-28 13:07 | 28.19845 | 120.67279 | 31151 ft | 456 kts | 360° |
| 2026-04-28 13:08 | 28.26168 | 120.67904 | 31160 ft | 456 kts | 360° |
| 2026-04-28 13:08 | 28.32504 | 120.68530 | 31163 ft | 456 kts | 360° |
| 2026-04-28 13:09 | 28.38804 | 120.69155 | 31159 ft | 457 kts | 360° |
| 2026-04-28 13:09 | 28.45132 | 120.69782 | 31169 ft | 457 kts | 360° |
| 2026-04-28 13:10 | 28.51481 | 120.70418 | 31169 ft | 457 kts | 360° |
| 2026-04-28 13:10 | 28.57827 | 120.71056 | 31171 ft | 458 kts | 360° |
| 2026-04-28 13:11 | 28.64180 | 120.71695 | 31167 ft | 458 kts | 359° |
| 2026-04-28 13:11 | 28.70483 | 120.72331 | 31183 ft | 458 kts | 360° |
| 2026-04-28 13:12 | 28.76852 | 120.73017 | 31176 ft | 459 kts | 360° |
| 2026-04-28 13:12 | 28.83218 | 120.73710 | 31171 ft | 460 kts | 360° |
| 2026-04-28 13:13 | 28.89592 | 120.74389 | 31179 ft | 459 kts | 360° |
| 2026-04-28 13:13 | 28.95961 | 120.75044 | 31176 ft | 459 kts | 359° |
| 2026-04-28 13:14 | 29.02326 | 120.75698 | 31182 ft | 459 kts | 359° |
| 2026-04-28 13:14 | 29.08685 | 120.76354 | 31181 ft | 459 kts | 359° |
| 2026-04-28 13:15 | 29.15046 | 120.77014 | 31184 ft | 458 kts | 359° |
| 2026-04-28 13:15 | 29.21358 | 120.77669 | 31188 ft | 459 kts | 359° |
| 2026-04-28 13:16 | 29.27718 | 120.78330 | 31190 ft | 459 kts | 359° |
| 2026-04-28 13:16 | 29.34085 | 120.78993 | 31204 ft | 459 kts | 359° |
| 2026-04-28 13:17 | 29.40461 | 120.79658 | 31198 ft | 459 kts | 359° |
| 2026-04-28 13:17 | 29.46835 | 120.80323 | 31203 ft | 459 kts | 359° |
| 2026-04-28 13:18 | 29.53220 | 120.80989 | 31218 ft | 464 kts | 359° |
| 2026-04-28 13:18 | 29.59639 | 120.82020 | 31206 ft | 475 kts | 9° |
| 2026-04-28 13:18 | 29.62792 | 120.83251 | 31025 ft | 482 kts | 18° |
| 2026-04-28 13:19 | 29.65833 | 120.84959 | 30209 ft | 490 kts | 24° |
| 2026-04-28 13:19 | 29.68817 | 120.86839 | 29489 ft | 485 kts | 25° |
| 2026-04-28 13:19 | 29.71739 | 120.88734 | 28795 ft | 478 kts | 25° |
| 2026-04-28 13:19 | 29.74628 | 120.90592 | 28112 ft | 472 kts | 25° |
| 2026-04-28 13:20 | 29.77489 | 120.92396 | 27444 ft | 466 kts | 24° |
| 2026-04-28 13:20 | 29.80323 | 120.94155 | 26790 ft | 460 kts | 24° |
| 2026-04-28 13:20 | 29.83131 | 120.95880 | 26148 ft | 455 kts | 24° |
| 2026-04-28 13:20 | 29.85915 | 120.97584 | 25496 ft | 451 kts | 24° |
| 2026-04-28 13:21 | 29.88641 | 120.99254 | 24834 ft | 447 kts | 24° |
| 2026-04-28 13:21 | 29.91379 | 121.00934 | 24179 ft | 444 kts | 24° |
| 2026-04-28 13:21 | 29.94098 | 121.02607 | 23484 ft | 441 kts | 25° |
| 2026-04-28 13:21 | 29.96790 | 121.04264 | 22741 ft | 437 kts | 25° |
| 2026-04-28 13:22 | 29.99453 | 121.05908 | 22173 ft | 429 kts | 25° |
| 2026-04-28 13:22 | 30.02063 | 121.07524 | 21539 ft | 423 kts | 25° |
| 2026-04-28 13:22 | 30.04640 | 121.09119 | 20913 ft | 418 kts | 25° |
| 2026-04-28 13:22 | 30.06335 | 121.10169 | 20497 ft | 415 kts | 25° |
| 2026-04-28 13:23 | 30.08864 | 121.11735 | 19864 ft | 411 kts | 25° |
| 2026-04-28 13:23 | 30.11377 | 121.13292 | 19211 ft | 409 kts | 25° |
| 2026-04-28 13:23 | 30.14715 | 121.15362 | 18342 ft | 405 kts | 25° |
| 2026-04-28 13:23 | 30.16355 | 121.16380 | 17850 ft | 403 kts | 25° |
| 2026-04-28 13:24 | 30.18814 | 121.17906 | 17187 ft | 399 kts | 25° |
| 2026-04-28 13:24 | 30.21250 | 121.19420 | 16545 ft | 395 kts | 25° |
| 2026-04-28 13:24 | 30.23660 | 121.20918 | 15917 ft | 391 kts | 25° |
| 2026-04-28 13:24 | 30.26115 | 121.22212 | 15249 ft | 384 kts | 12° |
| 2026-04-28 13:25 | 30.28714 | 121.22695 | 14620 ft | 376 kts | 1° |
| 2026-04-28 13:25 | 30.31320 | 121.22993 | 13966 ft | 374 kts | 1° |
| 2026-04-28 13:25 | 30.33873 | 121.23275 | 13278 ft | 372 kts | 1° |
| 2026-04-28 13:25 | 30.36436 | 121.23573 | 12641 ft | 368 kts | 1° |
| 2026-04-28 13:26 | 30.38964 | 121.23887 | 12295 ft | 357 kts | 2° |
| 2026-04-28 13:26 | 30.41380 | 121.24201 | 12124 ft | 341 kts | 2° |
| 2026-04-28 13:26 | 30.43686 | 121.24502 | 11966 ft | 327 kts | 2° |
| 2026-04-28 13:26 | 30.45895 | 121.24793 | 11888 ft | 311 kts | 2° |
| 2026-04-28 13:27 | 30.48061 | 121.25089 | 11280 ft | 316 kts | 2° |
| 2026-04-28 13:27 | 30.50258 | 121.25393 | 10688 ft | 320 kts | 3° |
| 2026-04-28 13:27 | 30.52462 | 121.25700 | 10234 ft | 319 kts | 3° |
| 2026-04-28 13:27 | 30.54669 | 121.26008 | 9743 ft | 318 kts | 4° |
| 2026-04-28 13:28 | 30.56859 | 121.26314 | 9290 ft | 314 kts | 4° |
| 2026-04-28 13:28 | 30.58986 | 121.26612 | 8845 ft | 302 kts | 5° |
| 2026-04-28 13:28 | 30.61039 | 121.26900 | 8445 ft | 291 kts | 5° |
| 2026-04-28 13:28 | 30.62995 | 121.27172 | 8060 ft | 282 kts | 6° |
| 2026-04-28 13:29 | 30.64918 | 121.27440 | 7693 ft | 274 kts | 7° |
| 2026-04-28 13:29 | 30.66787 | 121.27700 | 7339 ft | 267 kts | 7° |
| 2026-04-28 13:29 | 30.68647 | 121.27960 | 7001 ft | 273 kts | 8° |
| 2026-04-28 13:29 | 30.70566 | 121.28228 | 6629 ft | 282 kts | 9° |
| 2026-04-28 13:30 | 30.72514 | 121.28500 | 6233 ft | 281 kts | 9° |
| 2026-04-28 13:30 | 30.74446 | 121.28770 | 5866 ft | 278 kts | 10° |
| 2026-04-28 13:30 | 30.76354 | 121.29036 | 5510 ft | 274 kts | 11° |
| 2026-04-28 13:30 | 30.78237 | 121.29299 | 5171 ft | 270 kts | 11° |
| 2026-04-28 13:31 | 30.81908 | 121.29813 | 4488 ft | 261 kts | 12° |
| 2026-04-28 13:31 | 30.83693 | 121.30063 | 4165 ft | 255 kts | 12° |
| 2026-04-28 13:31 | 30.85405 | 121.30349 | 3845 ft | 248 kts | 18° |
| 2026-04-28 13:32 | 30.87025 | 121.30924 | 3531 ft | 241 kts | 24° |
| 2026-04-28 13:32 | 30.88596 | 121.31572 | 3174 ft | 237 kts | 24° |
| 2026-04-28 13:32 | 30.90146 | 121.32205 | 2815 ft | 235 kts | 24° |
| 2026-04-28 13:32 | 30.91681 | 121.32816 | 2454 ft | 232 kts | 22° |
| 2026-04-28 13:33 | 30.93199 | 121.33411 | 2256 ft | 224 kts | 22° |
| 2026-04-28 13:33 | 30.94638 | 121.33970 | 2134 ft | 213 kts | 22° |
| 2026-04-28 13:33 | 30.96016 | 121.34503 | 2022 ft | 203 kts | 20° |
| 2026-04-28 13:33 | 30.97380 | 121.34735 | 1996 ft | 193 kts | 6° |
| 2026-04-28 13:34 | 30.98682 | 121.34736 | 1983 ft | 180 kts | 4° |
| 2026-04-28 13:34 | 30.99892 | 121.34695 | 1975 ft | 170 kts | 4° |
| 2026-04-28 13:34 | 31.01078 | 121.34641 | 2008 ft | 171 kts | 4° |
| 2026-04-28 13:34 | 31.02254 | 121.34580 | 2019 ft | 167 kts | 3° |
| 2026-04-28 13:35 | 31.03409 | 121.34517 | 2017 ft | 165 kts | 3° |
| 2026-04-28 13:35 | 31.04552 | 121.34456 | 2003 ft | 164 kts | 3° |
| 2026-04-28 13:35 | 31.05701 | 121.34394 | 2011 ft | 166 kts | 3° |
| 2026-04-28 13:35 | 31.06814 | 121.34332 | 1996 ft | 157 kts | 3° |
| 2026-04-28 13:36 | 31.07874 | 121.34273 | 1987 ft | 149 kts | 4° |
| 2026-04-28 13:36 | 31.08899 | 121.34218 | 1909 ft | 147 kts | 4° |
| 2026-04-28 13:36 | 31.09898 | 121.34164 | 1706 ft | 139 kts | 3° |
| 2026-04-28 13:36 | 31.10813 | 121.34113 | 1573 ft | 125 kts | 4° |
| 2026-04-28 13:37 | 31.11673 | 121.34067 | 1388 ft | 121 kts | 4° |
| 2026-04-28 13:37 | 31.12498 | 121.34023 | 1207 ft | 116 kts | 3° |
| 2026-04-28 13:37 | 31.13312 | 121.33980 | 1062 ft | 118 kts | 3° |
| 2026-04-28 13:37 | 31.14151 | 121.33935 | 900 ft | 122 kts | 2° |
| 2026-04-28 13:38 | 31.15015 | 121.33888 | 709 ft | 124 kts | 2° |
| 2026-04-28 13:38 | 31.15860 | 121.33840 | 547 ft | 123 kts | 0° |
| 2026-04-28 13:38 | 31.16722 | 121.33792 | 400 ft | 125 kts | 1° |
| 2026-04-28 13:38 | 31.17592 | 121.33742 | 219 ft | 125 kts | 0° |
| 2026-04-28 13:39 | 31.18459 | 121.33683 | 38 ft | 124 kts | 2° |
| 2026-04-28 13:39 | 31.19239 | 121.33660 | 19 ft | 95 kts | 356° |
| 2026-04-28 13:39 | 31.19753 | 121.33632 | 18 ft | 51 kts | 358° |
| 2026-04-28 13:39 | 31.19956 | 121.33625 | 18 ft | 12 kts | 5° |
| 2026-04-28 13:40 | 31.20039 | 121.33644 | 17 ft | 13 kts | 16° |
| 2026-04-28 13:40 | 31.20133 | 121.33688 | 17 ft | 16 kts | 26° |
| 2026-04-28 13:40 | 31.20219 | 121.33741 | 18 ft | 13 kts | 28° |
| 2026-04-28 13:40 | 31.20284 | 121.33794 | 18 ft | 9 kts | 66° |
| 2026-04-28 13:41 | 31.20262 | 121.33853 | 19 ft | 9 kts | 154° |
| 2026-04-28 13:41 | 31.20202 | 121.33860 | 18 ft | 9 kts | 176° |
| 2026-04-28 13:41 | 31.20144 | 121.33863 | 18 ft | 8 kts | 178° |
| 2026-04-28 13:41 | 31.20087 | 121.33865 | 18 ft | 8 kts | 178° |
| 2026-04-28 13:42 | 31.20032 | 121.33868 | 18 ft | 8 kts | 177° |
| 2026-04-28 13:42 | 31.19975 | 121.33871 | 18 ft | 9 kts | 177° |
| 2026-04-28 13:42 | 31.19897 | 121.33876 | 18 ft | 13 kts | 178° |
| 2026-04-28 13:42 | 31.19798 | 121.33881 | 18 ft | 15 kts | 177° |
| 2026-04-28 13:43 | 31.19687 | 121.33887 | 18 ft | 16 kts | 177° |
| 2026-04-28 13:43 | 31.19569 | 121.33894 | 18 ft | 17 kts | 177° |
| 2026-04-28 13:43 | 31.19446 | 121.33900 | 18 ft | 18 kts | 177° |
| 2026-04-28 13:43 | 31.19369 | 121.33928 | 19 ft | 10 kts | 119° |
| 2026-04-28 13:44 | 31.19335 | 121.33990 | 18 ft | 10 kts | 164° |
| 2026-04-28 13:44 | 31.19269 | 121.33995 | 18 ft | 9 kts | 177° |
| 2026-04-28 13:44 | 31.19204 | 121.33999 | 18 ft | 9 kts | 177° |
| 2026-04-28 13:44 | 31.19130 | 121.34003 | 18 ft | 12 kts | 177° |
| 2026-04-28 13:45 | 31.19031 | 121.34008 | 18 ft | 16 kts | 178° |
| 2026-04-28 13:45 | 31.18926 | 121.34014 | 18 ft | 15 kts | 177° |
| 2026-04-28 13:45 | 31.18825 | 121.34019 | 18 ft | 14 kts | 177° |
| 2026-04-28 13:45 | 31.18741 | 121.34024 | 18 ft | 10 kts | 177° |
| 2026-04-28 13:46 | 31.18695 | 121.34050 | 19 ft | 7 kts | 111° |
| 2026-04-28 13:46 | 31.18695 | 121.34095 | 18 ft | 4 kts | 85° |
| 2026-04-28 13:46 | 31.18695 | 121.34114 | 18 ft | 1 kts | 88° |
| 2026-04-28 13:46 | 31.18695 | 121.34119 | 18 ft | 0 kts | 88° |
| 2026-04-28 13:47 | 31.18695 | 121.34120 | 18 ft | 0 kts | 88° |